Fire Dart — FIRE — position and weather

sailwx.info

Track history (hours):
 
Tides and Currents Weather Stations Pressure Air Temp Water Temp Dewpoint Dewpoint Depression Visibility Wind Speed Wind Dir Waves Ship Positions

Fire Dart

Last reported at 2018-Apr-25 21:10 UTC. Time now 2018-Apr-26 01:36 UTC.
Position N 25°47' W 080°11'.

Length 14 m.

Type: High speed craft. MMSI: 235094361.

Date/timePositionNaut miles runAvg speedWind from/ knotsBaromVisibWave heightAir tempDewpointWater temp
2018-Apr-25 21:10N 25°47' W 080°11'0 0.0
2018-Apr-25 18:07N 25°47' W 080°11'1 9.8
2018-Apr-25 18:00N 25°46' W 080°10'821238.0
2018-Apr-25 14:33N 29°41' W 094°59'0 0.0
2018-Apr-25 14:27N 29°41' W 094°59'0 0.0
2018-Apr-25 13:26N 29°41' W 094°59'0 0.0
2018-Apr-25 12:47N 29°41' W 094°59'8202142.5
2018-Apr-25 12:24N 25°47' W 080°11'8203804.7
2018-Apr-25 12:11N 29°41' W 094°59'8204657.4
2018-Apr-25 12:01N 25°47' W 080°11'82010816.0
2018-Apr-25 11:56N 29°41' W 094°59'8201698.7
2018-Apr-25 11:27N 25°47' W 080°11'820428.1
2018-Apr-25 09:32N 29°41' W 094°59'0 0.1
2018-Apr-25 09:26N 29°41' W 094°59'0 0.0
2018-Apr-25 08:53N 29°41' W 094°59'0 0.0
2018-Apr-25 08:23N 29°41' W 094°59'0 0.0
2018-Apr-25 07:53N 29°41' W 094°59'0 0.0
2018-Apr-25 07:17N 29°41' W 094°59'0 0.0
2018-Apr-25 04:47N 29°41' W 094°59'0 0.0
2018-Apr-25 04:29N 29°41' W 094°59'820168.4
2018-Apr-24 23:37N 25°47' W 080°11'0 0.0
2018-Apr-24 23:28N 25°47' W 080°11'0 0.0
2018-Apr-24 18:11N 25°47' W 080°11'0 0.2
2018-Apr-24 18:00N 25°47' W 080°11'2 3.1
2018-Apr-24 17:30N 25°45' W 080°10'2 1.1
2018-Apr-24 16:06N 25°47' W 080°11'0 1.3
2018-Apr-24 16:00N 25°47' W 080°11'0 0.6
2018-Apr-24 15:28N 25°47' W 080°11'0 0.6
2018-Apr-24 14:57N 25°47' W 080°11'0 0.2
2018-Apr-24 14:30N 25°47' W 080°11'0 0.1
2018-Apr-24 14:00N 25°47' W 080°11'0 0.0
2018-Apr-24 13:27N 25°47' W 080°11'0 0.0
2018-Apr-24 12:07N 25°47' W 080°11'0 0.0
2018-Apr-24 11:58N 25°47' W 080°11'820382.9
2018-Apr-24 09:49N 29°41' W 094°59'82088.4
2018-Apr-24 00:32N 25°47' W 080°11'0 0.0
2018-Apr-24 00:29N 25°47' W 080°11'2 4.8
2018-Apr-24 00:00N 25°44' W 080°11'821403.6
2018-Apr-23 21:58N 29°41' W 094°59'8202213.0
2018-Apr-23 21:36N 25°47' W 080°11'1 5.6
2018-Apr-23 21:30N 25°46' W 080°11'8162747.0
2018-Apr-23 21:12N 29°38' W 094°55'0 1.1
2018-Apr-23 20:56N 29°38' W 094°55'816123.7
2018-Apr-23 14:20N 25°47' W 080°11'0 0.6
2018-Apr-23 13:57N 25°47' W 080°11'0 0.1
2018-Apr-23 12:07N 25°47' W 080°11'0 0.0
2018-Apr-23 11:58N 25°47' W 080°11'0 0.0
2018-Apr-23 11:25N 25°47' W 080°11'0 0.0
2018-Apr-22 22:21N 25°47' W 080°11'0 0.0
2018-Apr-22 22:00N 25°47' W 080°11'0 0.0
2018-Apr-22 21:30N 25°47' W 080°11'0 0.0
2018-Apr-22 20:51N 25°47' W 080°11'0 0.0
2018-Apr-22 20:14N 25°47' W 080°11'2 9.5
2018-Apr-22 20:00N 25°45' W 080°11'1 1.2
2018-Apr-22 19:29N 25°45' W 080°10'0 0.3
2018-Apr-22 19:00N 25°45' W 080°10'2 0.3
2018-Apr-22 11:42N 25°47' W 080°11'0 0.0
2018-Apr-22 11:30N 25°47' W 080°11'0 0.0
2018-Apr-22 11:00N 25°47' W 080°11'0 0.0
2018-Apr-22 00:43N 25°47' W 080°11'0 0.6
2018-Apr-22 00:30N 25°47' W 080°11'1 2.5
2018-Apr-22 00:00N 25°45' W 080°11'4 7.6
2018-Apr-21 23:29N 25°41' W 080°11'822305.0
2018-Apr-21 20:47N 29°41' W 094°59'311.1
2018-Apr-21 20:30N 29°38' W 094°60'820169.1
2018-Apr-21 15:40N 25°47' W 080°11'0 0.0
2018-Apr-21 15:18N 25°47' W 080°11'311.8
2018-Apr-21 15:00N 25°46' W 080°07'3 6.3
2018-Apr-21 14:30N 25°47' W 080°11'0 0.7
2018-Apr-21 14:00N 25°47' W 080°11'0 0.0
2018-Apr-21 13:30N 25°47' W 080°11'0 0.0
2018-Apr-21 11:42N 25°47' W 080°11'0 0.0
2018-Apr-21 11:27N 25°47' W 080°11'0 0.0
2018-Apr-21 00:04N 25°47' W 080°11'0 0.0
2018-Apr-20 23:55N 25°47' W 080°11'0 0.0
2018-Apr-20 23:30N 25°47' W 080°11'0 0.0
2018-Apr-20 22:51N 25°47' W 080°11'0 0.0
2018-Apr-20 22:27N 25°47' W 080°11'0 0.0
2018-Apr-20 21:57N 25°47' W 080°11'0 0.0
2018-Apr-20 21:30N 25°47' W 080°11'0 0.0
2018-Apr-20 20:51N 25°47' W 080°11'410.0
2018-Apr-20 20:30N 25°45' W 080°07'2 3.2
2018-Apr-20 19:55N 25°44' W 080°08'0 0.0
2018-Apr-20 19:28N 25°44' W 080°08'0 0.0
2018-Apr-20 18:55N 25°44' W 080°08'0 0.0
2018-Apr-20 18:27N 25°44' W 080°08'3 6.6
2018-Apr-20 18:00N 25°46' W 080°10'821405.9
2018-Apr-20 15:59N 29°41' W 094°59'5 9.8
2018-Apr-20 15:30N 29°37' W 095°01'82133595.9
2018-Apr-20 15:29N 25°47' W 080°11'8211528.4
2018-Apr-20 14:56N 29°37' W 095°01'0 0.0
2018-Apr-20 14:26N 29°37' W 095°01'0 0.0
2018-Apr-20 13:56N 29°37' W 095°01'0 0.2
2018-Apr-20 13:30N 29°37' W 095°01'821573.9
2018-Apr-20 12:04N 25°47' W 080°11'0 0.0
2018-Apr-20 11:58N 25°47' W 080°11'82014472.7
2018-Apr-20 11:55N 29°41' W 094°59'0 0.0
2018-Apr-20 11:07N 29°41' W 094°59'0 0.0
2018-Apr-20 10:52N 29°41' W 094°59'0 0.0
2018-Apr-20 10:28N 29°41' W 094°59'0 0.0
2018-Apr-20 09:55N 29°41' W 094°59'0 0.0
2018-Apr-20 09:28N 29°41' W 094°59'0 0.0
2018-Apr-20 08:52N 29°41' W 094°59'0 0.0
2018-Apr-20 08:27N 29°41' W 094°59'0 0.0
2018-Apr-20 08:01N 29°41' W 094°59'0 0.0
2018-Apr-20 07:31N 29°41' W 094°59'0 0.0
2018-Apr-20 06:58N 29°41' W 094°59'0 0.0
2018-Apr-20 06:28N 29°41' W 094°59'0 0.0
2018-Apr-20 05:58N 29°41' W 094°59'0 0.0
2018-Apr-20 05:30N 29°41' W 094°59'0 0.0
2018-Apr-20 05:00N 29°41' W 094°59'0 0.0
2018-Apr-20 04:31N 29°41' W 094°59'0 0.0
2018-Apr-20 03:57N 29°41' W 094°59'0 0.0
2018-Apr-20 03:31N 29°41' W 094°59'0 0.0
2018-Apr-20 02:57N 29°41' W 094°59'0 0.0
2018-Apr-20 02:25N 29°41' W 094°59'0 0.0
2018-Apr-20 01:58N 29°41' W 094°59'0 0.0
2018-Apr-20 01:30N 29°41' W 094°59'0 0.0
2018-Apr-20 01:01N 29°41' W 094°59'0 0.0
2018-Apr-20 00:27N 29°41' W 094°59'0 0.0
2018-Apr-20 00:00N 29°41' W 094°59'0 0.0
2018-Apr-19 23:25N 29°41' W 094°59'8202436.0
2018-Apr-19 23:04N 25°47' W 080°11'1 6.4
2018-Apr-19 22:58N 25°46' W 080°11'82161554.4
2018-Apr-19 22:58N 29°41' W 094°59'8211780.4
2018-Apr-19 22:30N 25°46' W 080°10'1 0.1
2018-Apr-19 11:19N 25°47' W 080°11'0 0.0
2018-Apr-19 10:58N 25°47' W 080°11'0 0.0
2018-Apr-18 23:41N 25°47' W 080°11'0 0.0
2018-Apr-18 20:32N 25°47' W 080°11'0 2.0
2018-Apr-18 20:30N 25°47' W 080°11'2 3.6
2018-Apr-18 19:52N 25°45' W 080°10'0 0.4
2018-Apr-18 19:30N 25°45' W 080°10'2 4.1
2018-Apr-18 18:55N 25°47' W 080°11'0 0.0
2018-Apr-18 18:28N 25°47' W 080°11'0 0.0
2018-Apr-18 17:58N 25°47' W 080°11'0 0.0
2018-Apr-18 16:11N 25°47' W 080°11'0 0.5
2018-Apr-18 15:55N 25°47' W 080°11'0 0.7
2018-Apr-18 15:30N 25°47' W 080°11'0 0.4
2018-Apr-18 15:00N 25°47' W 080°11'0 0.0
2018-Apr-18 14:30N 25°47' W 080°11'0 0.0
2018-Apr-18 14:00N 25°47' W 080°11'0 0.0
2018-Apr-18 13:25N 25°47' W 080°11'82097.7
2018-Apr-18 05:01N 29°41' W 094°59'0 0.0
2018-Apr-18 04:34N 29°41' W 094°59'0 0.0
2018-Apr-18 04:28N 29°41' W 094°59'0 0.0
2018-Apr-18 03:04N 29°41' W 094°59'0 0.0
2018-Apr-18 02:43N 29°41' W 094°59'0 0.0
2018-Apr-18 02:25N 29°41' W 094°59'820405.6
2018-Apr-18 00:24N 25°47' W 080°11'0 0.0
2018-Apr-18 00:00N 25°47' W 080°11'82081.4
2018-Apr-17 13:55N 29°41' W 094°59'0 0.0
2018-Apr-17 13:19N 29°41' W 094°59'820750.7
2018-Apr-17 12:14N 25°47' W 080°11'820101808.0
2018-Apr-17 12:13N 29°41' W 094°59'0 0.0
2018-Apr-17 11:56N 29°41' W 094°59'0 0.0
2018-Apr-17 11:30N 29°41' W 094°59'0 0.0
2018-Apr-17 11:00N 29°41' W 094°59'0 0.0
2018-Apr-17 10:30N 29°41' W 094°59'0 0.0
2018-Apr-17 10:00N 29°41' W 094°59'0 0.0
2018-Apr-17 09:30N 29°41' W 094°59'0 0.0
2018-Apr-17 08:59N 29°41' W 094°59'0 0.0
2018-Apr-17 08:29N 29°41' W 094°59'0 0.0
2018-Apr-17 08:00N 29°41' W 094°59'0 0.0
2018-Apr-17 07:26N 29°41' W 094°59'0 0.0
2018-Apr-17 07:00N 29°41' W 094°59'0 0.0
2018-Apr-17 06:30N 29°41' W 094°59'0 0.0
2018-Apr-17 05:58N 29°41' W 094°59'0 0.0
2018-Apr-17 05:30N 29°41' W 094°59'0 0.0
2018-Apr-17 05:01N 29°41' W 094°59'0 0.0
2018-Apr-17 04:27N 29°41' W 094°59'0 0.0
2018-Apr-17 04:00N 29°41' W 094°59'0 0.0
2018-Apr-17 03:17N 29°41' W 094°59'0 0.0
2018-Apr-17 02:55N 29°41' W 094°59'0 0.0
2018-Apr-17 02:27N 29°41' W 094°59'0 0.0
2018-Apr-17 01:59N 29°41' W 094°59'0 0.0
2018-Apr-17 01:30N 29°41' W 094°59'0 0.0
2018-Apr-17 00:55N 29°41' W 094°59'0 0.0
2018-Apr-17 00:30N 29°41' W 094°59'0 0.0
2018-Apr-16 23:57N 29°41' W 094°59'0 0.0
2018-Apr-16 23:25N 29°41' W 094°59'0 0.0
2018-Apr-16 22:57N 29°41' W 094°59'820781.1
2018-Apr-16 21:54N 25°47' W 080°11'0 0.4
2018-Apr-16 21:30N 25°47' W 080°11'1 3.0
2018-Apr-16 21:01N 25°47' W 080°09'821962.9
2018-Apr-16 20:09N 29°41' W 094°59'1 8.8
2018-Apr-16 20:00N 29°40' W 094°59'1 2.9
2018-Apr-16 19:30N 29°41' W 094°59'0 0.5
2018-Apr-16 18:59N 29°41' W 094°59'0 0.0
2018-Apr-16 18:29N 29°41' W 094°59'0 0.0
2018-Apr-16 17:56N 29°41' W 094°59'820218.3
2018-Apr-16 14:10N 25°47' W 080°11'0 1.1
2018-Apr-16 13:58N 25°47' W 080°11'820876.7
2018-Apr-16 13:02N 29°41' W 094°59'0 0.0
2018-Apr-16 12:47N 29°41' W 094°59'820970.2
2018-Apr-16 11:56N 25°47' W 080°11'0 0.0
2018-Apr-16 11:29N 25°47' W 080°11'0 0.0
2018-Apr-16 10:56N 25°47' W 080°11'820257.6
2018-Apr-16 07:45N 29°41' W 094°59'820111.4
2018-Apr-16 00:23N 25°47' W 080°11'0 0.0
2018-Apr-15 22:56N 25°47' W 080°11'4 8.6
2018-Apr-15 22:29N 25°43' W 080°11'2 3.0
2018-Apr-15 21:59N 25°42' W 080°11'  
Track history (hours):
 
Tides and Currents Weather Stations Pressure Air Temp Water Temp Dewpoint Dewpoint Depression Visibility Wind Speed Wind Dir Waves Ship Positions

Fire Dart

Last reported at 2018-Apr-25 21:10 UTC. Time now 2018-Apr-26 01:36 UTC.
Position N 25°47' W 080°11'.

Length 14 m.

Type: High speed craft. MMSI: 235094361.

Date/timePositionNaut miles runAvg speedWind from/ knotsBaromVisibWave heightAir tempDewpointWater temp
2018-Apr-25 21:10N 25°47' W 080°11'0 0.0
2018-Apr-25 18:07N 25°47' W 080°11'1 9.8
2018-Apr-25 18:00N 25°46' W 080°10'821238.0
2018-Apr-25 14:33N 29°41' W 094°59'0 0.0
2018-Apr-25 14:27N 29°41' W 094°59'0 0.0
2018-Apr-25 13:26N 29°41' W 094°59'0 0.0
2018-Apr-25 12:47N 29°41' W 094°59'8202142.5
2018-Apr-25 12:24N 25°47' W 080°11'8203804.7
2018-Apr-25 12:11N 29°41' W 094°59'8204657.4
2018-Apr-25 12:01N 25°47' W 080°11'82010816.0
2018-Apr-25 11:56N 29°41' W 094°59'8201698.7
2018-Apr-25 11:27N 25°47' W 080°11'820428.1
2018-Apr-25 09:32N 29°41' W 094°59'0 0.1
2018-Apr-25 09:26N 29°41' W 094°59'0 0.0
2018-Apr-25 08:53N 29°41' W 094°59'0 0.0
2018-Apr-25 08:23N 29°41' W 094°59'0 0.0
2018-Apr-25 07:53N 29°41' W 094°59'0 0.0
2018-Apr-25 07:17N 29°41' W 094°59'0 0.0
2018-Apr-25 04:47N 29°41' W 094°59'0 0.0
2018-Apr-25 04:29N 29°41' W 094°59'820168.4
2018-Apr-24 23:37N 25°47' W 080°11'0 0.0
2018-Apr-24 23:28N 25°47' W 080°11'0 0.0
2018-Apr-24 18:11N 25°47' W 080°11'0 0.2
2018-Apr-24 18:00N 25°47' W 080°11'2 3.1
2018-Apr-24 17:30N 25°45' W 080°10'2 1.1
2018-Apr-24 16:06N 25°47' W 080°11'0 1.3
2018-Apr-24 16:00N 25°47' W 080°11'0 0.6
2018-Apr-24 15:28N 25°47' W 080°11'0 0.6
2018-Apr-24 14:57N 25°47' W 080°11'0 0.2
2018-Apr-24 14:30N 25°47' W 080°11'0 0.1
2018-Apr-24 14:00N 25°47' W 080°11'0 0.0
2018-Apr-24 13:27N 25°47' W 080°11'0 0.0
2018-Apr-24 12:07N 25°47' W 080°11'0 0.0
2018-Apr-24 11:58N 25°47' W 080°11'820382.9
2018-Apr-24 09:49N 29°41' W 094°59'82088.4
2018-Apr-24 00:32N 25°47' W 080°11'0 0.0
2018-Apr-24 00:29N 25°47' W 080°11'2 4.8
2018-Apr-24 00:00N 25°44' W 080°11'821403.6
2018-Apr-23 21:58N 29°41' W 094°59'8202213.0
2018-Apr-23 21:36N 25°47' W 080°11'1 5.6
2018-Apr-23 21:30N 25°46' W 080°11'8162747.0
2018-Apr-23 21:12N 29°38' W 094°55'0 1.1
2018-Apr-23 20:56N 29°38' W 094°55'816123.7
2018-Apr-23 14:20N 25°47' W 080°11'0 0.6
2018-Apr-23 13:57N 25°47' W 080°11'0 0.1
2018-Apr-23 12:07N 25°47' W 080°11'0 0.0
2018-Apr-23 11:58N 25°47' W 080°11'0 0.0
2018-Apr-23 11:25N 25°47' W 080°11'0 0.0
2018-Apr-22 22:21N 25°47' W 080°11'0 0.0
2018-Apr-22 22:00N 25°47' W 080°11'0 0.0
2018-Apr-22 21:30N 25°47' W 080°11'0 0.0
2018-Apr-22 20:51N 25°47' W 080°11'0 0.0
2018-Apr-22 20:14N 25°47' W 080°11'2 9.5
2018-Apr-22 20:00N 25°45' W 080°11'1 1.2
2018-Apr-22 19:29N 25°45' W 080°10'0 0.3
2018-Apr-22 19:00N 25°45' W 080°10'2 0.3
2018-Apr-22 11:42N 25°47' W 080°11'0 0.0
2018-Apr-22 11:30N 25°47' W 080°11'0 0.0
2018-Apr-22 11:00N 25°47' W 080°11'0 0.0
2018-Apr-22 00:43N 25°47' W 080°11'0 0.6
2018-Apr-22 00:30N 25°47' W 080°11'1 2.5
2018-Apr-22 00:00N 25°45' W 080°11'4 7.6
2018-Apr-21 23:29N 25°41' W 080°11'822305.0
2018-Apr-21 20:47N 29°41' W 094°59'311.1
2018-Apr-21 20:30N 29°38' W 094°60'820169.1
2018-Apr-21 15:40N 25°47' W 080°11'0 0.0
2018-Apr-21 15:18N 25°47' W 080°11'311.8
2018-Apr-21 15:00N 25°46' W 080°07'3 6.3
2018-Apr-21 14:30N 25°47' W 080°11'0 0.7
2018-Apr-21 14:00N 25°47' W 080°11'0 0.0
2018-Apr-21 13:30N 25°47' W 080°11'0 0.0
2018-Apr-21 11:42N 25°47' W 080°11'0 0.0
2018-Apr-21 11:27N 25°47' W 080°11'0 0.0
2018-Apr-21 00:04N 25°47' W 080°11'0 0.0
2018-Apr-20 23:55N 25°47' W 080°11'0 0.0
2018-Apr-20 23:30N 25°47' W 080°11'0 0.0
2018-Apr-20 22:51N 25°47' W 080°11'0 0.0
2018-Apr-20 22:27N 25°47' W 080°11'0 0.0
2018-Apr-20 21:57N 25°47' W 080°11'0 0.0
2018-Apr-20 21:30N 25°47' W 080°11'0 0.0
2018-Apr-20 20:51N 25°47' W 080°11'410.0
2018-Apr-20 20:30N 25°45' W 080°07'2 3.2
2018-Apr-20 19:55N 25°44' W 080°08'0 0.0
2018-Apr-20 19:28N 25°44' W 080°08'0 0.0
2018-Apr-20 18:55N 25°44' W 080°08'0 0.0
2018-Apr-20 18:27N 25°44' W 080°08'3 6.6
2018-Apr-20 18:00N 25°46' W 080°10'821405.9
2018-Apr-20 15:59N 29°41' W 094°59'5 9.8
2018-Apr-20 15:30N 29°37' W 095°01'82133595.9
2018-Apr-20 15:29N 25°47' W 080°11'8211528.4
2018-Apr-20 14:56N 29°37' W 095°01'0 0.0
2018-Apr-20 14:26N 29°37' W 095°01'0 0.0
2018-Apr-20 13:56N 29°37' W 095°01'0 0.2
2018-Apr-20 13:30N 29°37' W 095°01'821573.9
2018-Apr-20 12:04N 25°47' W 080°11'0 0.0
2018-Apr-20 11:58N 25°47' W 080°11'82014472.7
2018-Apr-20 11:55N 29°41' W 094°59'0 0.0
2018-Apr-20 11:07N 29°41' W 094°59'0 0.0
2018-Apr-20 10:52N 29°41' W 094°59'0 0.0
2018-Apr-20 10:28N 29°41' W 094°59'0 0.0
2018-Apr-20 09:55N 29°41' W 094°59'0 0.0
2018-Apr-20 09:28N 29°41' W 094°59'0 0.0
2018-Apr-20 08:52N 29°41' W 094°59'0 0.0
2018-Apr-20 08:27N 29°41' W 094°59'0 0.0
2018-Apr-20 08:01N 29°41' W 094°59'0 0.0
2018-Apr-20 07:31N 29°41' W 094°59'0 0.0
2018-Apr-20 06:58N 29°41' W 094°59'0 0.0
2018-Apr-20 06:28N 29°41' W 094°59'0 0.0
2018-Apr-20 05:58N 29°41' W 094°59'0 0.0
2018-Apr-20 05:30N 29°41' W 094°59'0 0.0
2018-Apr-20 05:00N 29°41' W 094°59'0 0.0
2018-Apr-20 04:31N 29°41' W 094°59'0 0.0
2018-Apr-20 03:57N 29°41' W 094°59'0 0.0
2018-Apr-20 03:31N 29°41' W 094°59'0 0.0
2018-Apr-20 02:57N 29°41' W 094°59'0 0.0
2018-Apr-20 02:25N 29°41' W 094°59'0 0.0
2018-Apr-20 01:58N 29°41' W 094°59'0 0.0
2018-Apr-20 01:30N 29°41' W 094°59'0 0.0
2018-Apr-20 01:01N 29°41' W 094°59'0 0.0
2018-Apr-20 00:27N 29°41' W 094°59'0 0.0
2018-Apr-20 00:00N 29°41' W 094°59'0 0.0
2018-Apr-19 23:25N 29°41' W 094°59'8202436.0
2018-Apr-19 23:04N 25°47' W 080°11'1 6.4
2018-Apr-19 22:58N 25°46' W 080°11'82161554.4
2018-Apr-19 22:58N 29°41' W 094°59'8211780.4
2018-Apr-19 22:30N 25°46' W 080°10'1 0.1
2018-Apr-19 11:19N 25°47' W 080°11'0 0.0
2018-Apr-19 10:58N 25°47' W 080°11'0 0.0
2018-Apr-18 23:41N 25°47' W 080°11'0 0.0
2018-Apr-18 20:32N 25°47' W 080°11'0 2.0
2018-Apr-18 20:30N 25°47' W 080°11'2 3.6
2018-Apr-18 19:52N 25°45' W 080°10'0 0.4
2018-Apr-18 19:30N 25°45' W 080°10'2 4.1
2018-Apr-18 18:55N 25°47' W 080°11'0 0.0
2018-Apr-18 18:28N 25°47' W 080°11'0 0.0
2018-Apr-18 17:58N 25°47' W 080°11'0 0.0
2018-Apr-18 16:11N 25°47' W 080°11'0 0.5
2018-Apr-18 15:55N 25°47' W 080°11'0 0.7
2018-Apr-18 15:30N 25°47' W 080°11'0 0.4
2018-Apr-18 15:00N 25°47' W 080°11'0 0.0
2018-Apr-18 14:30N 25°47' W 080°11'0 0.0
2018-Apr-18 14:00N 25°47' W 080°11'0 0.0
2018-Apr-18 13:25N 25°47' W 080°11'82097.7
2018-Apr-18 05:01N 29°41' W 094°59'0 0.0
2018-Apr-18 04:34N 29°41' W 094°59'0 0.0
2018-Apr-18 04:28N 29°41' W 094°59'0 0.0
2018-Apr-18 03:04N 29°41' W 094°59'0 0.0
2018-Apr-18 02:43N 29°41' W 094°59'0 0.0
2018-Apr-18 02:25N 29°41' W 094°59'820405.6
2018-Apr-18 00:24N 25°47' W 080°11'0 0.0
2018-Apr-18 00:00N 25°47' W 080°11'82081.4
2018-Apr-17 13:55N 29°41' W 094°59'0 0.0
2018-Apr-17 13:19N 29°41' W 094°59'820750.7
2018-Apr-17 12:14N 25°47' W 080°11'820101808.0
2018-Apr-17 12:13N 29°41' W 094°59'0 0.0
2018-Apr-17 11:56N 29°41' W 094°59'0 0.0
2018-Apr-17 11:30N 29°41' W 094°59'0 0.0
2018-Apr-17 11:00N 29°41' W 094°59'0 0.0
2018-Apr-17 10:30N 29°41' W 094°59'0 0.0
2018-Apr-17 10:00N 29°41' W 094°59'0 0.0
2018-Apr-17 09:30N 29°41' W 094°59'0 0.0
2018-Apr-17 08:59N 29°41' W 094°59'0 0.0
2018-Apr-17 08:29N 29°41' W 094°59'0 0.0
2018-Apr-17 08:00N 29°41' W 094°59'0 0.0
2018-Apr-17 07:26N 29°41' W 094°59'0 0.0
2018-Apr-17 07:00N 29°41' W 094°59'0 0.0
2018-Apr-17 06:30N 29°41' W 094°59'0 0.0
2018-Apr-17 05:58N 29°41' W 094°59'0 0.0
2018-Apr-17 05:30N 29°41' W 094°59'0 0.0
2018-Apr-17 05:01N 29°41' W 094°59'0 0.0
2018-Apr-17 04:27N 29°41' W 094°59'0 0.0
2018-Apr-17 04:00N 29°41' W 094°59'0 0.0
2018-Apr-17 03:17N 29°41' W 094°59'0 0.0
2018-Apr-17 02:55N 29°41' W 094°59'0 0.0
2018-Apr-17 02:27N 29°41' W 094°59'0 0.0
2018-Apr-17 01:59N 29°41' W 094°59'0 0.0
2018-Apr-17 01:30N 29°41' W 094°59'0 0.0
2018-Apr-17 00:55N 29°41' W 094°59'0 0.0
2018-Apr-17 00:30N 29°41' W 094°59'0 0.0
2018-Apr-16 23:57N 29°41' W 094°59'0 0.0
2018-Apr-16 23:25N 29°41' W 094°59'0 0.0
2018-Apr-16 22:57N 29°41' W 094°59'820781.1
2018-Apr-16 21:54N 25°47' W 080°11'0 0.4
2018-Apr-16 21:30N 25°47' W 080°11'1 3.0
2018-Apr-16 21:01N 25°47' W 080°09'821962.9
2018-Apr-16 20:09N 29°41' W 094°59'1 8.8
2018-Apr-16 20:00N 29°40' W 094°59'1 2.9
2018-Apr-16 19:30N 29°41' W 094°59'0 0.5
2018-Apr-16 18:59N 29°41' W 094°59'0 0.0
2018-Apr-16 18:29N 29°41' W 094°59'0 0.0
2018-Apr-16 17:56N 29°41' W 094°59'820218.3
2018-Apr-16 14:10N 25°47' W 080°11'0 1.1
2018-Apr-16 13:58N 25°47' W 080°11'820876.7
2018-Apr-16 13:02N 29°41' W 094°59'0 0.0
2018-Apr-16 12:47N 29°41' W 094°59'820970.2
2018-Apr-16 11:56N 25°47' W 080°11'0 0.0
2018-Apr-16 11:29N 25°47' W 080°11'0 0.0
2018-Apr-16 10:56N 25°47' W 080°11'820257.6
2018-Apr-16 07:45N 29°41' W 094°59'820111.4
2018-Apr-16 00:23N 25°47' W 080°11'0 0.0
2018-Apr-15 22:56N 25°47' W 080°11'4 8.6
2018-Apr-15 22:29N 25°43' W 080°11'2 3.0
2018-Apr-15 21:59N 25°42' W 080°11'  

Dump ship's entire track history